Terminal Aerodrome Forecast
Issued by NWS Raleigh/Durham, NC

Home | Current Version | Previous Version | Text Only | Print | Product List | Glossary On
Versions: 1 2 3 4 5 6 7 8 9 10 11 12 13 14 15 16 17 18 19 20 21
000
FTUS42 KRAH 310532
TAFGSO
TAF
KGSO 310532Z 3106/0106 04005KT P6SM FEW060
     FM311800 VRB04KT P6SM BKN045 BKN150
     FM010300 05004KT 3SM -RA BKN015 OVC030=

USA.gov is the U.S. government's official web portal to all federal, state and local government web resources and services.